sensor_id;sensor_type;location;lat;lon;timestamp;P1;durP1;ratioP1;P2;durP2;ratioP2
35689;SDS011;26977;44.830;-0.674;2023-01-24T00:01:13;21.08;;;11.93;;
35689;SDS011;26977;44.830;-0.674;2023-01-24T00:03:38;19.77;;;11.45;;
35689;SDS011;26977;44.830;-0.674;2023-01-24T00:06:06;18.20;;;10.23;;
35689;SDS011;26977;44.830;-0.674;2023-01-24T00:08:34;16.80;;;9.73;;
35689;SDS011;26977;44.830;-0.674;2023-01-24T00:11:00;18.83;;;10.52;;
35689;SDS011;26977;44.830;-0.674;2023-01-24T00:13:28;17.08;;;10.52;;
35689;SDS011;26977;44.830;-0.674;2023-01-24T00:16:08;21.00;;;10.60;;
35689;SDS011;26977;44.830;-0.674;2023-01-24T00:18:39;16.55;;;10.15;;
35689;SDS011;26977;44.830;-0.674;2023-01-24T00:21:06;23.45;;;12.02;;
35689;SDS011;26977;44.830;-0.674;2023-01-24T00:23:37;20.73;;;12.82;;
35689;SDS011;26977;44.830;-0.674;2023-01-24T00:26:03;24.05;;;14.40;;
35689;SDS011;26977;44.830;-0.674;2023-01-24T00:28:30;19.92;;;11.05;;
35689;SDS011;26977;44.830;-0.674;2023-01-24T00:30:56;25.55;;;12.30;;
35689;SDS011;26977;44.830;-0.674;2023-01-24T00:33:21;21.33;;;13.07;;
35689;SDS011;26977;44.830;-0.674;2023-01-24T00:35:51;18.67;;;10.60;;
35689;SDS011;26977;44.830;-0.674;2023-01-24T00:38:33;19.95;;;10.27;;
35689;SDS011;26977;44.830;-0.674;2023-01-24T00:40:59;17.85;;;10.50;;
35689;SDS011;26977;44.830;-0.674;2023-01-24T00:43:27;18.15;;;10.18;;
35689;SDS011;26977;44.830;-0.674;2023-01-24T00:45:54;17.65;;;10.63;;
35689;SDS011;26977;44.830;-0.674;2023-01-24T00:48:20;16.55;;;9.32;;
35689;SDS011;26977;44.830;-0.674;2023-01-24T00:50:47;16.77;;;9.10;;
35689;SDS011;26977;44.830;-0.674;2023-01-24T00:53:13;18.17;;;9.27;;
35689;SDS011;26977;44.830;-0.674;2023-01-24T00:55:42;15.20;;;9.02;;
35689;SDS011;26977;44.830;-0.674;2023-01-24T00:58:09;16.92;;;9.80;;
35689;SDS011;26977;44.830;-0.674;2023-01-24T01:00:36;17.63;;;9.68;;
35689;SDS011;26977;44.830;-0.674;2023-01-24T01:03:04;17.35;;;9.85;;
35689;SDS011;26977;44.830;-0.674;2023-01-24T01:05:41;18.10;;;10.18;;
35689;SDS011;26977;44.830;-0.674;2023-01-24T01:08:08;20.35;;;10.43;;
35689;SDS011;26977;44.830;-0.674;2023-01-24T01:10:37;16.63;;;9.52;;
35689;SDS011;26977;44.830;-0.674;2023-01-24T01:13:04;16.77;;;9.73;;
35689;SDS011;26977;44.830;-0.674;2023-01-24T01:15:31;17.63;;;10.38;;
35689;SDS011;26977;44.830;-0.674;2023-01-24T01:17:57;19.85;;;10.50;;
35689;SDS011;26977;44.830;-0.674;2023-01-24T01:20:23;17.42;;;10.27;;
35689;SDS011;26977;44.830;-0.674;2023-01-24T01:22:50;18.38;;;10.00;;
35689;SDS011;26977;44.830;-0.674;2023-01-24T01:25:16;17.33;;;9.90;;
35689;SDS011;26977;44.830;-0.674;2023-01-24T01:27:41;16.73;;;9.80;;
35689;SDS011;26977;44.830;-0.674;2023-01-24T01:30:07;15.27;;;9.43;;
35689;SDS011;26977;44.830;-0.674;2023-01-24T01:32:46;16.63;;;9.70;;
35689;SDS011;26977;44.830;-0.674;2023-01-24T01:35:13;19.63;;;9.70;;
35689;SDS011;26977;44.830;-0.674;2023-01-24T01:37:42;17.52;;;9.07;;
35689;SDS011;26977;44.830;-0.674;2023-01-24T01:40:08;15.00;;;9.48;;
35689;SDS011;26977;44.830;-0.674;2023-01-24T01:43:08;18.67;;;9.77;;
35689;SDS011;26977;44.830;-0.674;2023-01-24T01:47:57;19.08;;;9.80;;
35689;SDS011;26977;44.830;-0.674;2023-01-24T01:50:28;17.25;;;9.43;;
35689;SDS011;26977;44.830;-0.674;2023-01-24T01:52:57;16.08;;;9.65;;
35689;SDS011;26977;44.830;-0.674;2023-01-24T01:55:27;16.55;;;9.82;;
35689;SDS011;26977;44.830;-0.674;2023-01-24T01:57:57;18.67;;;10.40;;
35689;SDS011;26977;44.830;-0.674;2023-01-24T02:00:25;16.35;;;10.65;;
35689;SDS011;26977;44.830;-0.674;2023-01-24T02:03:00;16.42;;;9.70;;
35689;SDS011;26977;44.830;-0.674;2023-01-24T02:05:58;15.68;;;9.38;;
35689;SDS011;26977;44.830;-0.674;2023-01-24T02:08:24;18.30;;;10.40;;
35689;SDS011;26977;44.830;-0.674;2023-01-24T02:10:52;18.95;;;10.35;;
35689;SDS011;26977;44.830;-0.674;2023-01-24T02:13:39;17.60;;;10.18;;
35689;SDS011;26977;44.830;-0.674;2023-01-24T02:16:08;17.25;;;9.82;;
35689;SDS011;26977;44.830;-0.674;2023-01-24T02:18:36;16.58;;;9.95;;
35689;SDS011;26977;44.830;-0.674;2023-01-24T02:21:09;19.02;;;9.90;;
35689;SDS011;26977;44.830;-0.674;2023-01-24T02:23:43;19.10;;;9.85;;
35689;SDS011;26977;44.830;-0.674;2023-01-24T02:26:26;16.42;;;10.32;;
35689;SDS011;26977;44.830;-0.674;2023-01-24T02:28:57;17.65;;;10.60;;
35689;SDS011;26977;44.830;-0.674;2023-01-24T02:31:27;16.50;;;10.23;;
35689;SDS011;26977;44.830;-0.674;2023-01-24T02:33:53;20.60;;;11.30;;
35689;SDS011;26977;44.830;-0.674;2023-01-24T02:36:30;16.30;;;9.90;;
35689;SDS011;26977;44.830;-0.674;2023-01-24T02:39:04;18.60;;;10.50;;
35689;SDS011;26977;44.830;-0.674;2023-01-24T02:41:38;18.30;;;10.52;;
35689;SDS011;26977;44.830;-0.674;2023-01-24T02:44:09;17.70;;;9.88;;
35689;SDS011;26977;44.830;-0.674;2023-01-24T02:46:44;18.17;;;10.43;;
35689;SDS011;26977;44.830;-0.674;2023-01-24T02:49:11;18.60;;;11.05;;
35689;SDS011;26977;44.830;-0.674;2023-01-24T02:51:39;18.33;;;10.93;;
35689;SDS011;26977;44.830;-0.674;2023-01-24T02:54:23;18.40;;;10.48;;
35689;SDS011;26977;44.830;-0.674;2023-01-24T02:56:49;18.10;;;10.77;;
35689;SDS011;26977;44.830;-0.674;2023-01-24T02:59:34;18.77;;;10.55;;
35689;SDS011;26977;44.830;-0.674;2023-01-24T03:01:59;17.48;;;10.20;;
35689;SDS011;26977;44.830;-0.674;2023-01-24T03:04:25;19.13;;;11.10;;
35689;SDS011;26977;44.830;-0.674;2023-01-24T03:06:51;19.98;;;10.88;;
35689;SDS011;26977;44.830;-0.674;2023-01-24T03:09:17;20.05;;;10.98;;
35689;SDS011;26977;44.830;-0.674;2023-01-24T03:12:01;18.63;;;10.27;;
35689;SDS011;26977;44.830;-0.674;2023-01-24T03:14:47;18.50;;;10.27;;
35689;SDS011;26977;44.830;-0.674;2023-01-24T03:17:31;19.73;;;10.50;;
35689;SDS011;26977;44.830;-0.674;2023-01-24T03:20:16;19.30;;;10.52;;
35689;SDS011;26977;44.830;-0.674;2023-01-24T03:23:01;20.40;;;11.40;;
35689;SDS011;26977;44.830;-0.674;2023-01-24T03:25:45;19.25;;;11.00;;
35689;SDS011;26977;44.830;-0.674;2023-01-24T03:28:29;18.63;;;11.00;;
35689;SDS011;26977;44.830;-0.674;2023-01-24T03:31:13;19.75;;;11.15;;
35689;SDS011;26977;44.830;-0.674;2023-01-24T03:34:09;18.65;;;10.52;;
35689;SDS011;26977;44.830;-0.674;2023-01-24T03:36:54;21.60;;;11.35;;
35689;SDS011;26977;44.830;-0.674;2023-01-24T03:39:20;21.30;;;11.55;;
35689;SDS011;26977;44.830;-0.674;2023-01-24T03:42:04;19.52;;;11.07;;
35689;SDS011;26977;44.830;-0.674;2023-01-24T03:44:29;23.35;;;11.20;;
35689;SDS011;26977;44.830;-0.674;2023-01-24T03:47:05;21.02;;;11.35;;
35689;SDS011;26977;44.830;-0.674;2023-01-24T03:49:31;21.17;;;11.25;;
35689;SDS011;26977;44.830;-0.674;2023-01-24T03:52:17;19.55;;;10.88;;
35689;SDS011;26977;44.830;-0.674;2023-01-24T03:54:58;20.60;;;11.55;;
35689;SDS011;26977;44.830;-0.674;2023-01-24T03:57:35;23.02;;;11.52;;
35689;SDS011;26977;44.830;-0.674;2023-01-24T04:00:01;18.25;;;10.52;;
35689;SDS011;26977;44.830;-0.674;2023-01-24T04:02:27;18.52;;;10.63;;
35689;SDS011;26977;44.830;-0.674;2023-01-24T04:04:54;19.73;;;11.75;;
35689;SDS011;26977;44.830;-0.674;2023-01-24T04:07:38;18.50;;;10.60;;
35689;SDS011;26977;44.830;-0.674;2023-01-24T04:10:04;21.30;;;11.85;;
35689;SDS011;26977;44.830;-0.674;2023-01-24T04:12:31;21.05;;;11.43;;
35689;SDS011;26977;44.830;-0.674;2023-01-24T04:14:57;25.63;;;12.35;;
35689;SDS011;26977;44.830;-0.674;2023-01-24T04:17:23;20.15;;;10.63;;
35689;SDS011;26977;44.830;-0.674;2023-01-24T04:19:49;18.27;;;10.98;;
35689;SDS011;26977;44.830;-0.674;2023-01-24T04:22:16;22.50;;;11.32;;
35689;SDS011;26977;44.830;-0.674;2023-01-24T04:24:42;20.60;;;11.35;;
35689;SDS011;26977;44.830;-0.674;2023-01-24T04:27:09;21.63;;;12.10;;
35689;SDS011;26977;44.830;-0.674;2023-01-24T04:29:41;23.23;;;11.73;;
35689;SDS011;26977;44.830;-0.674;2023-01-24T04:32:07;21.17;;;11.48;;
35689;SDS011;26977;44.830;-0.674;2023-01-24T04:34:33;22.00;;;10.98;;
35689;SDS011;26977;44.830;-0.674;2023-01-24T04:36:59;20.48;;;11.32;;
35689;SDS011;26977;44.830;-0.674;2023-01-24T04:39:25;20.60;;;11.70;;
35689;SDS011;26977;44.830;-0.674;2023-01-24T04:41:51;22.85;;;11.73;;
35689;SDS011;26977;44.830;-0.674;2023-01-24T04:44:18;23.45;;;12.45;;
35689;SDS011;26977;44.830;-0.674;2023-01-24T04:46:44;22.10;;;11.95;;
35689;SDS011;26977;44.830;-0.674;2023-01-24T04:49:10;20.20;;;11.10;;
35689;SDS011;26977;44.830;-0.674;2023-01-24T04:51:36;21.45;;;12.15;;
35689;SDS011;26977;44.830;-0.674;2023-01-24T04:54:01;18.35;;;10.77;;
35689;SDS011;26977;44.830;-0.674;2023-01-24T04:56:28;19.52;;;11.25;;
35689;SDS011;26977;44.830;-0.674;2023-01-24T04:58:54;18.52;;;10.95;;
35689;SDS011;26977;44.830;-0.674;2023-01-24T05:01:23;22.10;;;11.32;;
35689;SDS011;26977;44.830;-0.674;2023-01-24T05:03:49;22.50;;;11.45;;
35689;SDS011;26977;44.830;-0.674;2023-01-24T05:06:15;21.67;;;11.82;;
35689;SDS011;26977;44.830;-0.674;2023-01-24T05:08:41;18.65;;;11.70;;
35689;SDS011;26977;44.830;-0.674;2023-01-24T05:11:08;21.80;;;11.30;;
35689;SDS011;26977;44.830;-0.674;2023-01-24T05:13:34;22.08;;;11.82;;
35689;SDS011;26977;44.830;-0.674;2023-01-24T05:16:00;21.70;;;12.15;;
35689;SDS011;26977;44.830;-0.674;2023-01-24T05:18:27;22.85;;;12.05;;
35689;SDS011;26977;44.830;-0.674;2023-01-24T05:20:53;20.38;;;11.70;;
35689;SDS011;26977;44.830;-0.674;2023-01-24T05:23:19;21.58;;;10.77;;
35689;SDS011;26977;44.830;-0.674;2023-01-24T05:25:44;20.17;;;11.68;;
35689;SDS011;26977;44.830;-0.674;2023-01-24T05:28:10;23.50;;;12.52;;
35689;SDS011;26977;44.830;-0.674;2023-01-24T05:30:36;21.00;;;12.13;;
35689;SDS011;26977;44.830;-0.674;2023-01-24T05:33:02;21.30;;;12.32;;
35689;SDS011;26977;44.830;-0.674;2023-01-24T05:35:28;19.85;;;11.65;;
35689;SDS011;26977;44.830;-0.674;2023-01-24T05:37:55;22.65;;;12.50;;
35689;SDS011;26977;44.830;-0.674;2023-01-24T05:40:20;23.52;;;12.60;;
35689;SDS011;26977;44.830;-0.674;2023-01-24T05:42:46;18.90;;;11.45;;
35689;SDS011;26977;44.830;-0.674;2023-01-24T05:45:12;22.98;;;12.65;;
35689;SDS011;26977;44.830;-0.674;2023-01-24T05:47:38;21.77;;;11.85;;
35689;SDS011;26977;44.830;-0.674;2023-01-24T05:50:04;21.23;;;11.68;;
35689;SDS011;26977;44.830;-0.674;2023-01-24T05:52:32;19.58;;;11.85;;
35689;SDS011;26977;44.830;-0.674;2023-01-24T05:54:58;21.98;;;12.20;;
35689;SDS011;26977;44.830;-0.674;2023-01-24T05:57:25;19.63;;;11.40;;
35689;SDS011;26977;44.830;-0.674;2023-01-24T05:59:51;20.52;;;11.60;;
35689;SDS011;26977;44.830;-0.674;2023-01-24T06:02:18;23.92;;;12.32;;
35689;SDS011;26977;44.830;-0.674;2023-01-24T06:04:43;20.60;;;11.68;;
35689;SDS011;26977;44.830;-0.674;2023-01-24T06:07:09;22.23;;;12.30;;
35689;SDS011;26977;44.830;-0.674;2023-01-24T06:09:39;26.65;;;12.52;;
35689;SDS011;26977;44.830;-0.674;2023-01-24T06:12:06;21.55;;;11.18;;
35689;SDS011;26977;44.830;-0.674;2023-01-24T06:14:32;21.50;;;12.00;;
35689;SDS011;26977;44.830;-0.674;2023-01-24T06:16:59;23.40;;;12.68;;
35689;SDS011;26977;44.830;-0.674;2023-01-24T06:19:24;20.10;;;12.07;;
35689;SDS011;26977;44.830;-0.674;2023-01-24T06:24:40;22.70;;;11.45;;
35689;SDS011;26977;44.830;-0.674;2023-01-24T06:27:07;23.30;;;12.50;;
35689;SDS011;26977;44.830;-0.674;2023-01-24T06:29:45;26.15;;;13.13;;
35689;SDS011;26977;44.830;-0.674;2023-01-24T06:37:51;25.75;;;12.85;;
35689;SDS011;26977;44.830;-0.674;2023-01-24T06:40:18;23.65;;;12.90;;
35689;SDS011;26977;44.830;-0.674;2023-01-24T06:42:47;22.77;;;12.20;;
35689;SDS011;26977;44.830;-0.674;2023-01-24T06:45:14;24.95;;;12.93;;
35689;SDS011;26977;44.830;-0.674;2023-01-24T06:47:40;25.95;;;13.00;;
35689;SDS011;26977;44.830;-0.674;2023-01-24T06:50:06;22.40;;;12.63;;
35689;SDS011;26977;44.830;-0.674;2023-01-24T06:52:36;25.95;;;12.70;;
35689;SDS011;26977;44.830;-0.674;2023-01-24T06:55:02;25.60;;;13.23;;
35689;SDS011;26977;44.830;-0.674;2023-01-24T06:57:28;22.83;;;12.85;;
35689;SDS011;26977;44.830;-0.674;2023-01-24T06:59:54;25.95;;;12.82;;
35689;SDS011;26977;44.830;-0.674;2023-01-24T07:02:19;22.23;;;13.10;;
35689;SDS011;26977;44.830;-0.674;2023-01-24T07:04:45;23.30;;;13.00;;
35689;SDS011;26977;44.830;-0.674;2023-01-24T07:07:11;26.30;;;13.82;;
35689;SDS011;26977;44.830;-0.674;2023-01-24T07:09:36;23.48;;;13.38;;
35689;SDS011;26977;44.830;-0.674;2023-01-24T07:12:02;24.17;;;13.85;;
35689;SDS011;26977;44.830;-0.674;2023-01-24T07:14:28;26.77;;;12.82;;
35689;SDS011;26977;44.830;-0.674;2023-01-24T07:16:54;25.70;;;13.75;;
35689;SDS011;26977;44.830;-0.674;2023-01-24T07:19:21;25.45;;;13.38;;
35689;SDS011;26977;44.830;-0.674;2023-01-24T07:21:49;26.73;;;13.82;;
35689;SDS011;26977;44.830;-0.674;2023-01-24T07:24:19;22.88;;;13.30;;
35689;SDS011;26977;44.830;-0.674;2023-01-24T07:26:46;24.10;;;13.43;;
35689;SDS011;26977;44.830;-0.674;2023-01-24T07:29:16;23.95;;;13.43;;
35689;SDS011;26977;44.830;-0.674;2023-01-24T07:31:43;26.25;;;12.82;;
35689;SDS011;26977;44.830;-0.674;2023-01-24T07:34:08;23.15;;;13.52;;
35689;SDS011;26977;44.830;-0.674;2023-01-24T07:36:34;25.08;;;13.85;;
35689;SDS011;26977;44.830;-0.674;2023-01-24T07:39:00;23.70;;;13.68;;
35689;SDS011;26977;44.830;-0.674;2023-01-24T07:41:26;29.70;;;13.55;;
35689;SDS011;26977;44.830;-0.674;2023-01-24T07:43:51;25.58;;;14.50;;
35689;SDS011;26977;44.830;-0.674;2023-01-24T07:46:18;27.67;;;14.02;;
35689;SDS011;26977;44.830;-0.674;2023-01-24T07:48:44;23.90;;;13.68;;
35689;SDS011;26977;44.830;-0.674;2023-01-24T07:51:10;26.25;;;13.60;;
35689;SDS011;26977;44.830;-0.674;2023-01-24T07:53:35;24.27;;;13.63;;
35689;SDS011;26977;44.830;-0.674;2023-01-24T07:56:02;26.92;;;14.20;;
35689;SDS011;26977;44.830;-0.674;2023-01-24T07:58:28;27.45;;;13.55;;
35689;SDS011;26977;44.830;-0.674;2023-01-24T08:00:57;25.95;;;13.32;;
35689;SDS011;26977;44.830;-0.674;2023-01-24T08:03:23;23.60;;;13.38;;
35689;SDS011;26977;44.830;-0.674;2023-01-24T08:05:48;25.90;;;14.15;;
35689;SDS011;26977;44.830;-0.674;2023-01-24T08:08:14;24.10;;;13.23;;
35689;SDS011;26977;44.830;-0.674;2023-01-24T08:10:40;24.38;;;13.63;;
35689;SDS011;26977;44.830;-0.674;2023-01-24T08:13:05;24.20;;;13.98;;
35689;SDS011;26977;44.830;-0.674;2023-01-24T08:15:31;24.80;;;13.35;;
35689;SDS011;26977;44.830;-0.674;2023-01-24T08:17:57;27.02;;;14.00;;
35689;SDS011;26977;44.830;-0.674;2023-01-24T08:20:22;23.55;;;13.18;;
35689;SDS011;26977;44.830;-0.674;2023-01-24T08:22:53;23.67;;;13.27;;
35689;SDS011;26977;44.830;-0.674;2023-01-24T08:25:19;26.98;;;13.60;;
35689;SDS011;26977;44.830;-0.674;2023-01-24T08:27:45;25.77;;;14.32;;
35689;SDS011;26977;44.830;-0.674;2023-01-24T08:30:11;24.95;;;13.77;;
35689;SDS011;26977;44.830;-0.674;2023-01-24T08:32:37;25.67;;;13.75;;
35689;SDS011;26977;44.830;-0.674;2023-01-24T08:35:03;23.20;;;13.27;;
35689;SDS011;26977;44.830;-0.674;2023-01-24T08:37:29;24.65;;;14.05;;
35689;SDS011;26977;44.830;-0.674;2023-01-24T08:39:55;21.17;;;12.90;;
35689;SDS011;26977;44.830;-0.674;2023-01-24T08:42:22;22.65;;;13.02;;
35689;SDS011;26977;44.830;-0.674;2023-01-24T08:44:51;24.17;;;13.77;;
35689;SDS011;26977;44.830;-0.674;2023-01-24T08:47:17;26.00;;;14.23;;
35689;SDS011;26977;44.830;-0.674;2023-01-24T08:49:43;27.65;;;14.20;;
35689;SDS011;26977;44.830;-0.674;2023-01-24T08:52:09;24.83;;;13.48;;
35689;SDS011;26977;44.830;-0.674;2023-01-24T08:54:35;26.42;;;13.05;;
35689;SDS011;26977;44.830;-0.674;2023-01-24T08:57:01;22.95;;;13.40;;
35689;SDS011;26977;44.830;-0.674;2023-01-24T08:59:28;25.25;;;13.82;;
35689;SDS011;26977;44.830;-0.674;2023-01-24T09:01:54;24.60;;;13.65;;
35689;SDS011;26977;44.830;-0.674;2023-01-24T09:04:20;24.15;;;13.30;;
35689;SDS011;26977;44.830;-0.674;2023-01-24T09:06:46;23.73;;;13.45;;
35689;SDS011;26977;44.830;-0.674;2023-01-24T09:09:11;24.25;;;13.50;;
35689;SDS011;26977;44.830;-0.674;2023-01-24T09:11:37;31.33;;;13.00;;
35689;SDS011;26977;44.830;-0.674;2023-01-24T09:14:03;32.15;;;13.50;;
35689;SDS011;26977;44.830;-0.674;2023-01-24T09:16:28;25.23;;;13.93;;
35689;SDS011;26977;44.830;-0.674;2023-01-24T09:18:55;23.27;;;12.57;;
35689;SDS011;26977;44.830;-0.674;2023-01-24T09:21:21;26.13;;;14.20;;
35689;SDS011;26977;44.830;-0.674;2023-01-24T09:23:47;24.15;;;13.30;;
35689;SDS011;26977;44.830;-0.674;2023-01-24T09:26:12;27.63;;;14.10;;
35689;SDS011;26977;44.830;-0.674;2023-01-24T09:28:39;28.75;;;14.18;;
35689;SDS011;26977;44.830;-0.674;2023-01-24T09:31:07;26.10;;;14.35;;
35689;SDS011;26977;44.830;-0.674;2023-01-24T09:33:33;23.27;;;13.02;;
35689;SDS011;26977;44.830;-0.674;2023-01-24T09:36:00;21.65;;;12.52;;
35689;SDS011;26977;44.830;-0.674;2023-01-24T09:38:29;27.27;;;14.30;;
35689;SDS011;26977;44.830;-0.674;2023-01-24T09:41:01;26.55;;;13.00;;
35689;SDS011;26977;44.830;-0.674;2023-01-24T09:46:28;25.60;;;14.32;;
35689;SDS011;26977;44.830;-0.674;2023-01-24T09:51:33;25.30;;;14.05;;
35689;SDS011;26977;44.830;-0.674;2023-01-24T09:54:03;23.35;;;13.45;;
35689;SDS011;26977;44.830;-0.674;2023-01-24T09:56:34;24.92;;;13.10;;
35689;SDS011;26977;44.830;-0.674;2023-01-24T10:01:37;24.95;;;13.27;;
35689;SDS011;26977;44.830;-0.674;2023-01-24T10:04:09;23.67;;;14.13;;
35689;SDS011;26977;44.830;-0.674;2023-01-24T10:09:31;26.05;;;14.38;;
35689;SDS011;26977;44.830;-0.674;2023-01-24T10:12:19;24.10;;;12.80;;
35689;SDS011;26977;44.830;-0.674;2023-01-24T10:15:13;22.67;;;13.10;;
35689;SDS011;26977;44.830;-0.674;2023-01-24T10:23:40;26.33;;;14.02;;
35689;SDS011;26977;44.830;-0.674;2023-01-24T10:26:22;23.65;;;13.52;;
35689;SDS011;26977;44.830;-0.674;2023-01-24T10:32:09;28.00;;;13.27;;
35689;SDS011;26977;44.830;-0.674;2023-01-24T10:37:36;22.73;;;13.45;;
35689;SDS011;26977;44.830;-0.674;2023-01-24T10:40:13;22.35;;;13.57;;
35689;SDS011;26977;44.830;-0.674;2023-01-24T10:42:39;25.95;;;14.18;;
35689;SDS011;26977;44.830;-0.674;2023-01-24T10:47:56;25.45;;;13.57;;
35689;SDS011;26977;44.830;-0.674;2023-01-24T10:50:33;23.52;;;13.93;;
35689;SDS011;26977;44.830;-0.674;2023-01-24T10:56:04;23.50;;;12.88;;
35689;SDS011;26977;44.830;-0.674;2023-01-24T10:58:40;23.33;;;13.35;;
35689;SDS011;26977;44.830;-0.674;2023-01-24T11:01:19;24.13;;;12.93;;
35689;SDS011;26977;44.830;-0.674;2023-01-24T11:03:48;20.98;;;11.95;;
35689;SDS011;26977;44.830;-0.674;2023-01-24T11:06:31;23.38;;;13.32;;
35689;SDS011;26977;44.830;-0.674;2023-01-24T11:09:12;23.88;;;12.93;;
35689;SDS011;26977;44.830;-0.674;2023-01-24T11:11:41;22.55;;;13.25;;
35689;SDS011;26977;44.830;-0.674;2023-01-24T11:14:30;21.95;;;12.23;;
35689;SDS011;26977;44.830;-0.674;2023-01-24T11:17:01;25.10;;;12.90;;
35689;SDS011;26977;44.830;-0.674;2023-01-24T11:19:31;24.40;;;14.02;;
35689;SDS011;26977;44.830;-0.674;2023-01-24T11:22:02;25.88;;;13.40;;
35689;SDS011;26977;44.830;-0.674;2023-01-24T11:24:44;23.33;;;12.95;;
35689;SDS011;26977;44.830;-0.674;2023-01-24T11:27:14;24.50;;;13.40;;
35689;SDS011;26977;44.830;-0.674;2023-01-24T11:35:50;24.42;;;12.52;;
35689;SDS011;26977;44.830;-0.674;2023-01-24T11:38:23;24.55;;;13.15;;
35689;SDS011;26977;44.830;-0.674;2023-01-24T11:50:13;21.65;;;12.50;;
35689;SDS011;26977;44.830;-0.674;2023-01-24T12:09:02;21.23;;;12.23;;
35689;SDS011;26977;44.830;-0.674;2023-01-24T12:22:33;19.92;;;12.75;;
35689;SDS011;26977;44.830;-0.674;2023-01-24T12:27:38;21.45;;;12.70;;
35689;SDS011;26977;44.830;-0.674;2023-01-24T12:30:06;21.23;;;13.07;;
35689;SDS011;26977;44.830;-0.674;2023-01-24T12:32:50;25.15;;;12.50;;
35689;SDS011;26977;44.830;-0.674;2023-01-24T12:35:35;21.13;;;12.73;;
35689;SDS011;26977;44.830;-0.674;2023-01-24T12:40:54;20.80;;;12.55;;
35689;SDS011;26977;44.830;-0.674;2023-01-24T12:43:37;22.35;;;13.30;;
35689;SDS011;26977;44.830;-0.674;2023-01-24T12:49:27;21.70;;;12.82;;
35689;SDS011;26977;44.830;-0.674;2023-01-24T12:51:59;23.67;;;13.25;;
35689;SDS011;26977;44.830;-0.674;2023-01-24T12:59:48;21.67;;;13.00;;
35689;SDS011;26977;44.830;-0.674;2023-01-24T13:10:46;22.58;;;12.00;;
35689;SDS011;26977;44.830;-0.674;2023-01-24T13:13:40;22.73;;;12.85;;
35689;SDS011;26977;44.830;-0.674;2023-01-24T13:21:40;23.23;;;12.32;;
35689;SDS011;26977;44.830;-0.674;2023-01-24T13:32:27;21.33;;;12.68;;
35689;SDS011;26977;44.830;-0.674;2023-01-24T13:34:56;21.65;;;12.70;;
35689;SDS011;26977;44.830;-0.674;2023-01-24T13:37:26;27.13;;;12.27;;
35689;SDS011;26977;44.830;-0.674;2023-01-24T13:39:59;21.42;;;11.90;;
35689;SDS011;26977;44.830;-0.674;2023-01-24T13:42:38;25.67;;;12.68;;
35689;SDS011;26977;44.830;-0.674;2023-01-24T13:47:52;21.42;;;12.57;;
35689;SDS011;26977;44.830;-0.674;2023-01-24T13:50:22;20.60;;;12.10;;
35689;SDS011;26977;44.830;-0.674;2023-01-24T13:52:51;20.55;;;12.00;;
35689;SDS011;26977;44.830;-0.674;2023-01-24T14:10:46;21.05;;;12.32;;
35689;SDS011;26977;44.830;-0.674;2023-01-24T14:16:10;21.55;;;12.93;;
35689;SDS011;26977;44.830;-0.674;2023-01-24T14:21:22;18.33;;;10.77;;
35689;SDS011;26977;44.830;-0.674;2023-01-24T14:23:51;20.88;;;11.75;;
35689;SDS011;26977;44.830;-0.674;2023-01-24T14:26:21;20.40;;;12.57;;
35689;SDS011;26977;44.830;-0.674;2023-01-24T14:28:52;19.15;;;11.32;;
35689;SDS011;26977;44.830;-0.674;2023-01-24T14:31:28;21.00;;;12.55;;
35689;SDS011;26977;44.830;-0.674;2023-01-24T14:34:05;21.90;;;12.25;;
35689;SDS011;26977;44.830;-0.674;2023-01-24T14:36:38;20.15;;;12.23;;
35689;SDS011;26977;44.830;-0.674;2023-01-24T14:39:24;22.85;;;12.40;;
35689;SDS011;26977;44.830;-0.674;2023-01-24T14:41:58;21.83;;;12.05;;
35689;SDS011;26977;44.830;-0.674;2023-01-24T14:44:29;19.63;;;11.60;;
35689;SDS011;26977;44.830;-0.674;2023-01-24T14:47:04;21.73;;;11.38;;
35689;SDS011;26977;44.830;-0.674;2023-01-24T14:52:01;22.58;;;12.55;;
35689;SDS011;26977;44.830;-0.674;2023-01-24T14:54:43;19.48;;;12.13;;
35689;SDS011;26977;44.830;-0.674;2023-01-24T14:57:19;21.02;;;12.77;;
35689;SDS011;26977;44.830;-0.674;2023-01-24T14:59:46;22.42;;;13.40;;
35689;SDS011;26977;44.830;-0.674;2023-01-24T15:02:29;25.77;;;13.65;;
35689;SDS011;26977;44.830;-0.674;2023-01-24T15:04:55;22.88;;;12.82;;
35689;SDS011;26977;44.830;-0.674;2023-01-24T15:07:20;25.95;;;13.88;;
35689;SDS011;26977;44.830;-0.674;2023-01-24T15:09:47;23.55;;;12.57;;
35689;SDS011;26977;44.830;-0.674;2023-01-24T15:12:17;25.27;;;13.25;;
35689;SDS011;26977;44.830;-0.674;2023-01-24T15:15:00;21.75;;;12.43;;
35689;SDS011;26977;44.830;-0.674;2023-01-24T15:17:29;25.58;;;12.68;;
35689;SDS011;26977;44.830;-0.674;2023-01-24T15:19:57;22.52;;;13.45;;
35689;SDS011;26977;44.830;-0.674;2023-01-24T15:22:36;22.10;;;13.40;;
35689;SDS011;26977;44.830;-0.674;2023-01-24T15:25:14;25.17;;;13.27;;
35689;SDS011;26977;44.830;-0.674;2023-01-24T15:27:49;21.80;;;12.55;;
35689;SDS011;26977;44.830;-0.674;2023-01-24T15:30:25;21.45;;;12.43;;
35689;SDS011;26977;44.830;-0.674;2023-01-24T15:40:30;28.05;;;14.07;;
35689;SDS011;26977;44.830;-0.674;2023-01-24T15:43:00;26.33;;;14.25;;
35689;SDS011;26977;44.830;-0.674;2023-01-24T15:45:52;21.52;;;12.32;;
35689;SDS011;26977;44.830;-0.674;2023-01-24T15:48:40;20.88;;;12.88;;
35689;SDS011;26977;44.830;-0.674;2023-01-24T15:51:29;22.27;;;12.50;;
35689;SDS011;26977;44.830;-0.674;2023-01-24T15:54:00;24.63;;;13.52;;
35689;SDS011;26977;44.830;-0.674;2023-01-24T15:56:33;24.35;;;13.45;;
35689;SDS011;26977;44.830;-0.674;2023-01-24T15:58:59;26.92;;;13.45;;
35689;SDS011;26977;44.830;-0.674;2023-01-24T16:01:28;26.23;;;13.07;;
35689;SDS011;26977;44.830;-0.674;2023-01-24T16:03:55;29.85;;;13.90;;
35689;SDS011;26977;44.830;-0.674;2023-01-24T16:06:21;28.13;;;14.32;;
35689;SDS011;26977;44.830;-0.674;2023-01-24T16:08:47;24.92;;;14.32;;
35689;SDS011;26977;44.830;-0.674;2023-01-24T16:11:12;25.13;;;14.40;;
35689;SDS011;26977;44.830;-0.674;2023-01-24T16:13:39;26.50;;;14.27;;
35689;SDS011;26977;44.830;-0.674;2023-01-24T16:16:13;24.70;;;14.23;;
35689;SDS011;26977;44.830;-0.674;2023-01-24T16:18:40;26.42;;;14.50;;
35689;SDS011;26977;44.830;-0.674;2023-01-24T16:21:07;26.73;;;14.07;;
35689;SDS011;26977;44.830;-0.674;2023-01-24T16:23:34;25.00;;;14.10;;
35689;SDS011;26977;44.830;-0.674;2023-01-24T16:26:00;25.15;;;14.25;;
35689;SDS011;26977;44.830;-0.674;2023-01-24T16:28:26;27.90;;;15.45;;
35689;SDS011;26977;44.830;-0.674;2023-01-24T16:30:53;25.98;;;14.23;;
35689;SDS011;26977;44.830;-0.674;2023-01-24T16:33:23;26.45;;;15.27;;
35689;SDS011;26977;44.830;-0.674;2023-01-24T16:35:49;31.13;;;15.52;;
35689;SDS011;26977;44.830;-0.674;2023-01-24T16:38:15;25.08;;;14.45;;
35689;SDS011;26977;44.830;-0.674;2023-01-24T16:40:42;26.60;;;14.98;;
35689;SDS011;26977;44.830;-0.674;2023-01-24T16:43:11;34.70;;;14.70;;
35689;SDS011;26977;44.830;-0.674;2023-01-24T16:45:46;32.67;;;16.15;;
35689;SDS011;26977;44.830;-0.674;2023-01-24T16:48:12;26.48;;;14.90;;
35689;SDS011;26977;44.830;-0.674;2023-01-24T16:50:39;27.25;;;14.90;;
35689;SDS011;26977;44.830;-0.674;2023-01-24T16:53:09;25.50;;;14.45;;
35689;SDS011;26977;44.830;-0.674;2023-01-24T16:55:36;27.17;;;14.73;;
35689;SDS011;26977;44.830;-0.674;2023-01-24T16:58:06;26.30;;;15.13;;
35689;SDS011;26977;44.830;-0.674;2023-01-24T17:00:33;28.02;;;15.20;;